Time,TemperatureF,DewpointF,PressureIn,WindDirection,WindDirectionDegrees,WindSpeedMPH,WindSpeedGustMPH,Humidity,HourlyPrecipIn,Conditions,Clouds,dailyrainin,SoftwareType,DateUTC
2013-01-31 00:09:00,42.2,42.0,29.36,SW,221,0.0,1.0,98,0.00,,,0.35,weatherlink.com 1.10,2013-01-31 05:09:00,
2013-01-31 00:24:00,41.5,41.0,29.34,SW,221,0.0,1.0,98,0.00,,,0.00,weatherlink.com 1.10,2013-01-31 05:24:00,
2013-01-31 00:40:00,40.9,40.0,29.33,WNW,284,0.0,2.0,98,0.01,,,0.01,weatherlink.com 1.10,2013-01-31 05:40:00,
2013-01-31 00:54:00,40.3,40.0,29.32,ENE,67,0.0,2.0,98,0.02,,,0.02,weatherlink.com 1.10,2013-01-31 05:54:00,
2013-01-31 01:09:00,40.4,40.0,29.30,South,172,0.0,1.0,98,0.12,,,0.12,weatherlink.com 1.10,2013-01-31 06:09:00,
2013-01-31 01:25:00,40.6,40.0,29.29,South,172,0.0,0.0,98,0.21,,,0.21,weatherlink.com 1.10,2013-01-31 06:25:00,
2013-01-31 01:40:00,40.4,40.0,29.27,WNW,303,0.0,1.0,98,0.29,,,0.30,weatherlink.com 1.10,2013-01-31 06:40:00,
2013-01-31 01:55:00,40.2,40.0,29.25,NW,304,0.0,1.0,98,0.34,,,0.37,weatherlink.com 1.10,2013-01-31 06:55:00,
2013-01-31 02:10:00,40.0,40.0,29.23,NW,304,1.0,1.0,98,0.32,,,0.45,weatherlink.com 1.10,2013-01-31 07:10:00,
2013-01-31 02:25:00,39.6,39.0,29.21,NW,304,0.0,1.0,98,0.34,,,0.56,weatherlink.com 1.10,2013-01-31 07:25:00,
2013-01-31 02:40:00,39.1,39.0,29.18,WNW,303,0.0,0.0,98,0.34,,,0.65,weatherlink.com 1.10,2013-01-31 07:40:00,
2013-01-31 02:55:00,39.5,39.0,29.15,WNW,303,0.0,1.0,98,0.33,,,0.71,weatherlink.com 1.10,2013-01-31 07:55:00,
2013-01-31 03:10:00,38.9,38.0,29.13,WNW,303,0.0,1.0,98,0.31,,,0.76,weatherlink.com 1.10,2013-01-31 08:10:00,
2013-01-31 03:25:00,38.9,38.0,29.12,WNW,303,0.0,0.0,98,0.24,,,0.80,weatherlink.com 1.10,2013-01-31 08:25:00,
2013-01-31 03:40:00,38.7,38.0,29.10,NW,304,0.0,1.0,98,0.18,,,0.83,weatherlink.com 1.10,2013-01-31 08:40:00,
2013-01-31 04:10:00,38.5,38.0,29.02,NNW,327,1.0,2.0,98,0.13,,,0.90,weatherlink.com 1.10,2013-01-31 09:10:00,
2013-01-31 04:26:00,39.3,39.0,29.00,NW,325,0.0,1.0,99,0.11,,,0.92,weatherlink.com 1.10,2013-01-31 09:26:00,
2013-01-31 04:40:00,39.4,39.0,28.98,West,278,1.0,1.0,99,0.12,,,0.95,weatherlink.com 1.10,2013-01-31 09:40:00,
2013-01-31 04:56:00,39.6,39.0,28.97,NW,318,0.0,1.0,99,0.08,,,0.97,weatherlink.com 1.10,2013-01-31 09:56:00,
2013-01-31 05:10:00,45.1,45.0,28.96,West,273,2.0,7.0,99,0.10,,,1.00,weatherlink.com 1.10,2013-01-31 10:10:00,
2013-01-31 05:26:00,52.9,53.0,28.97,South,191,0.0,10.0,100,0.14,,,1.06,weatherlink.com 1.10,2013-01-31 10:26:00,
2013-01-31 05:45:00,53.8,54.0,28.95,SSE,160,0.0,8.0,100,0.19,,,1.14,weatherlink.com 1.10,2013-01-31 10:45:00,
2013-01-31 05:55:00,52.4,52.0,28.92,SSE,162,0.0,2.0,100,0.19,,,1.16,weatherlink.com 1.10,2013-01-31 10:55:00,
2013-01-31 06:11:00,51.3,51.0,28.96,West,281,0.0,5.0,100,0.17,,,1.16,weatherlink.com 1.10,2013-01-31 11:11:00,
2013-01-31 06:21:00,51.3,51.0,28.94,South,183,0.0,1.0,100,0.01,,,0.01,weatherlink.com 1.10,2013-01-31 11:21:00,
2013-01-31 06:30:00,49.8,50.0,28.92,South,183,0.0,1.0,100,0.01,,,0.01,weatherlink.com 1.10,2013-01-31 11:30:00,
2013-01-31 06:45:00,49.5,50.0,28.93,SSW,210,0.0,4.0,100,0.02,,,0.02,weatherlink.com 1.10,2013-01-31 11:45:00,
2013-01-31 07:02:00,48.1,48.0,28.88,WSW,243,0.0,2.0,99,0.03,,,0.03,weatherlink.com 1.10,2013-01-31 12:02:00,
2013-01-31 07:15:00,48.5,48.0,28.88,WNW,293,0.0,2.0,99,0.03,,,0.03,weatherlink.com 1.10,2013-01-31 12:15:00,
2013-01-31 07:30:00,49.8,50.0,28.86,SSW,208,0.0,2.0,99,0.03,,,0.04,weatherlink.com 1.10,2013-01-31 12:30:00,
2013-01-31 07:45:00,51.2,51.0,28.85,SSE,156,0.0,5.0,100,0.02,,,0.04,weatherlink.com 1.10,2013-01-31 12:45:00,
2013-01-31 08:02:00,52.9,53.0,28.88,South,179,3.0,10.0,100,0.13,,,0.16,weatherlink.com 1.10,2013-01-31 13:02:00,
2013-01-31 08:15:00,50.8,51.0,28.94,SW,224,7.0,18.0,99,0.13,,,0.16,weatherlink.com 1.10,2013-01-31 13:15:00,
2013-01-31 08:30:00,46.5,46.0,28.95,SSE,168,0.0,13.0,96,0.12,,,0.16,weatherlink.com 1.10,2013-01-31 13:30:00,
2013-01-31 08:45:00,45.7,44.0,28.97,SE,137,1.0,8.0,95,0.12,,,0.16,weatherlink.com 1.10,2013-01-31 13:45:00,
2013-01-31 09:02:00,45.1,42.0,28.98,WNW,297,4.0,13.0,89,0.00,,,0.16,weatherlink.com 1.10,2013-01-31 14:02:00,
2013-01-31 09:15:00,44.6,40.0,29.02,WNW,288,0.0,9.0,84,0.00,,,0.16,weatherlink.com 1.10,2013-01-31 14:15:00,
2013-01-31 09:30:00,44.1,40.0,29.02,WSW,250,1.0,8.0,84,0.00,,,0.16,weatherlink.com 1.10,2013-01-31 14:30:00,
2013-01-31 09:46:00,43.9,37.0,29.05,NNE,26,1.0,16.0,77,0.00,,,0.16,weatherlink.com 1.10,2013-01-31 14:46:00,
2013-01-31 10:02:00,43.1,36.0,29.06,South,176,6.0,11.0,76,0.00,,,0.16,weatherlink.com 1.10,2013-01-31 15:02:00,
2013-01-31 10:16:00,43.2,35.0,29.07,SE,141,3.0,6.0,74,0.00,,,0.16,weatherlink.com 1.10,2013-01-31 15:16:00,
2013-01-31 10:31:00,43.0,35.0,29.08,SSW,193,4.0,15.0,73,0.00,,,0.16,weatherlink.com 1.10,2013-01-31 15:31:00,
2013-01-31 10:46:00,42.8,35.0,29.09,West,266,6.0,10.0,74,0.00,,,0.16,weatherlink.com 1.10,2013-01-31 15:46:00,
2013-01-31 11:02:00,42.9,33.0,29.10,South,189,8.0,16.0,69,0.00,,,0.16,weatherlink.com 1.10,2013-01-31 16:02:00,
2013-01-31 11:16:00,42.1,32.0,29.11,NW,314,2.0,20.0,68,0.00,,,0.16,weatherlink.com 1.10,2013-01-31 16:16:00,
2013-01-31 11:31:00,41.5,31.0,29.13,NW,318,5.0,13.0,67,0.00,,,0.16,weatherlink.com 1.10,2013-01-31 16:31:00,
2013-01-31 11:46:00,40.9,29.0,29.13,SW,217,5.0,16.0,62,0.00,,,0.16,weatherlink.com 1.10,2013-01-31 16:46:00,
2013-01-31 12:02:00,41.3,28.0,29.15,West,273,7.0,19.0,60,0.00,,,0.16,weatherlink.com 1.10,2013-01-31 17:02:00,
2013-01-31 12:16:00,41.0,27.0,29.16,South,179,7.0,17.0,59,0.00,,,0.16,weatherlink.com 1.10,2013-01-31 17:16:00,
2013-01-31 12:31:00,40.1,27.0,29.17,South,174,4.0,22.0,59,0.00,,,0.16,weatherlink.com 1.10,2013-01-31 17:31:00,
2013-01-31 12:47:00,39.2,25.0,29.17,SSW,211,7.0,19.0,58,0.00,,,0.16,weatherlink.com 1.10,2013-01-31 17:47:00,
2013-01-31 13:02:00,38.4,25.0,29.18,SE,146,3.0,15.0,58,0.00,,,0.16,weatherlink.com 1.10,2013-01-31 18:02:00,
2013-01-31 13:16:00,37.7,24.0,29.20,SW,214,10.0,22.0,57,0.00,,,0.16,weatherlink.com 1.10,2013-01-31 18:16:00,
2013-01-31 13:31:00,38.1,23.0,29.21,South,176,4.0,19.0,55,0.00,,,0.16,weatherlink.com 1.10,2013-01-31 18:31:00,
2013-01-31 13:47:00,37.8,22.0,29.21,SW,222,8.0,23.0,53,0.00,,,0.16,weatherlink.com 1.10,2013-01-31 18:47:00,
2013-01-31 14:01:00,37.2,21.0,29.22,SW,236,8.0,16.0,53,0.00,,,0.16,weatherlink.com 1.10,2013-01-31 19:01:00,
2013-01-31 14:17:00,36.8,20.0,29.25,WSW,246,2.0,18.0,52,0.00,,,0.16,weatherlink.com 1.10,2013-01-31 19:17:00,
2013-01-31 14:48:00,35.5,20.0,29.27,South,180,9.0,13.0,54,0.00,,,0.16,weatherlink.com 1.10,2013-01-31 19:48:00,
2013-01-31 15:02:00,35.4,19.0,29.29,NE,36,4.0,7.0,52,0.00,,,0.16,weatherlink.com 1.10,2013-01-31 20:02:00,
2013-01-31 15:16:00,35.3,19.0,29.29,WSW,255,3.0,12.0,52,0.00,,,0.16,weatherlink.com 1.10,2013-01-31 20:16:00,
2013-01-31 15:32:00,35.2,19.0,29.30,NNW,332,5.0,10.0,52,0.00,,,0.16,weatherlink.com 1.10,2013-01-31 20:32:00,
2013-01-31 15:46:00,34.9,16.0,29.32,NW,305,2.0,23.0,47,0.00,,,0.16,weatherlink.com 1.10,2013-01-31 20:46:00,
2013-01-31 16:02:00,34.5,17.0,29.33,NNW,347,5.0,8.0,49,0.00,,,0.16,weatherlink.com 1.10,2013-01-31 21:02:00,
2013-01-31 16:17:00,34.2,16.0,29.34,WSW,243,11.0,14.0,47,0.00,,,0.16,weatherlink.com 1.10,2013-01-31 21:17:00,
2013-01-31 16:32:00,33.8,17.0,29.34,WSW,242,2.0,11.0,51,0.00,,,0.16,weatherlink.com 1.10,2013-01-31 21:32:00,
2013-01-31 16:47:00,33.5,17.0,29.35,WNW,301,5.0,11.0,51,0.00,,,0.16,weatherlink.com 1.10,2013-01-31 21:47:00,
2013-01-31 17:03:00,33.3,17.0,29.36,SSE,156,2.0,21.0,51,0.00,,,0.16,weatherlink.com 1.10,2013-01-31 22:03:00,
2013-01-31 17:18:00,32.7,16.0,29.38,SSW,212,8.0,16.0,50,0.00,,,0.16,weatherlink.com 1.10,2013-01-31 22:18:00,
2013-01-31 17:32:00,32.2,16.0,29.39,WSW,254,3.0,16.0,51,0.00,,,0.16,weatherlink.com 1.10,2013-01-31 22:32:00,
2013-01-31 17:47:00,31.8,16.0,29.41,NNE,18,1.0,12.0,52,0.00,,,0.16,weatherlink.com 1.10,2013-01-31 22:47:00,
2013-01-31 18:05:00,31.5,15.0,29.41,NW,322,2.0,15.0,51,0.00,,,0.16,weatherlink.com 1.10,2013-01-31 23:05:00,
2013-01-31 19:33:00,30.7,12.0,29.45,ESE,105,9.0,17.0,46,0.00,,,0.16,weatherlink.com 1.10,2013-02-01 00:33:00,
2013-01-31 20:18:00,29.9,14.0,29.47,West,266,6.0,10.0,52,0.00,,,0.16,weatherlink.com 1.10,2013-02-01 01:18:00,
2013-01-31 20:33:00,29.6,13.0,29.48,SSW,211,5.0,11.0,51,0.00,,,0.16,weatherlink.com 1.10,2013-02-01 01:33:00,
2013-01-31 20:49:00,29.3,14.0,29.48,WSW,248,9.0,12.0,53,0.00,,,0.16,weatherlink.com 1.10,2013-02-01 01:49:00,
2013-01-31 21:03:00,28.9,14.0,29.49,NNW,332,2.0,15.0,55,0.00,,,0.16,weatherlink.com 1.10,2013-02-01 02:03:00,
2013-01-31 21:18:00,28.2,17.0,29.50,West,277,4.0,10.0,63,0.00,,,0.16,weatherlink.com 1.10,2013-02-01 02:18:00,
2013-01-31 21:33:00,27.0,20.0,29.51,SSE,150,0.0,9.0,74,0.00,,,0.16,weatherlink.com 1.10,2013-02-01 02:33:00,
2013-01-31 22:04:00,25.3,21.0,29.52,ENE,65,1.0,7.0,83,0.00,,,0.16,weatherlink.com 1.10,2013-02-01 03:04:00,
2013-01-31 22:19:00,24.9,20.0,29.54,WSW,247,7.0,11.0,83,0.00,,,0.16,weatherlink.com 1.10,2013-02-01 03:19:00,
2013-01-31 22:34:00,24.6,20.0,29.54,NW,311,2.0,6.0,82,0.00,,,0.16,weatherlink.com 1.10,2013-02-01 03:34:00,
2013-01-31 22:49:00,24.6,20.0,29.54,WSW,238,3.0,7.0,82,0.00,,,0.16,weatherlink.com 1.10,2013-02-01 03:49:00,
2013-01-31 23:05:00,24.5,19.0,29.55,SSW,210,5.0,11.0,81,0.00,,,0.16,weatherlink.com 1.10,2013-02-01 04:05:00,
2013-01-31 23:19:00,24.3,19.0,29.55,SSW,207,3.0,10.0,81,0.00,,,0.16,weatherlink.com 1.10,2013-02-01 04:19:00,
2013-01-31 23:34:00,23.9,19.0,29.55,SW,233,4.0,8.0,82,0.00,,,0.16,weatherlink.com 1.10,2013-02-01 04:34:00,